createdAt,value
2022-09-10T00:04:11.378Z,100672.83
2022-09-10T00:09:17.602Z,100672.98
2022-09-10T00:14:24.428Z,100667.70
2022-09-10T00:19:31.638Z,100667.79
2022-09-10T00:24:38.742Z,100658.83
2022-09-10T00:29:53.102Z,100650.45
2022-09-10T00:35:01.222Z,100638.21
2022-09-10T00:40:09.232Z,100635.90
2022-09-10T00:45:20.577Z,100632.97
2022-09-10T00:50:30.391Z,100629.48
2022-09-10T00:55:39.048Z,100627.90
2022-09-10T01:00:45.894Z,100625.32
2022-09-10T01:05:52.390Z,100625.29
2022-09-10T01:11:13.385Z,100627.20
2022-09-10T01:16:28.625Z,100624.45
2022-09-10T01:21:40.902Z,100623.55
2022-09-10T01:27:21.935Z,100616.89
2022-09-10T01:32:29.994Z,100612.37
2022-09-10T01:37:40.833Z,100602.61
2022-09-10T01:42:49.690Z,100600.19
2022-09-10T01:48:35.424Z,100597.26
2022-09-10T01:54:00.191Z,100598.80
2022-09-10T01:59:18.979Z,100589.65
2022-09-10T02:04:26.186Z,100590.31
2022-09-10T02:09:32.760Z,100582.36
2022-09-10T02:14:39.599Z,100584.02
2022-09-10T02:20:02.258Z,100575.63
2022-09-10T02:25:11.157Z,100571.45
2022-09-10T02:35:22.722Z,100568.18
2022-09-10T02:40:31.429Z,100563.41
2022-09-10T02:45:41.221Z,100556.86
2022-09-10T02:50:48.514Z,100553.67
2022-09-10T02:55:54.811Z,100555.00
2022-09-10T03:01:09.450Z,100553.99
2022-09-10T03:06:15.977Z,100556.80
2022-09-10T03:11:24.038Z,100549.64
2022-09-10T03:16:31.315Z,100547.70
2022-09-10T03:21:37.075Z,100545.77
2022-09-10T03:26:44.456Z,100538.02
2022-09-10T03:31:51.799Z,100536.23
2022-09-10T03:36:58.841Z,100542.56
2022-09-10T03:42:05.421Z,100541.95
2022-09-10T03:47:12.973Z,100549.95
2022-09-10T03:52:19.353Z,100555.19
2022-09-10T03:57:26.270Z,100548.27
2022-09-10T04:02:32.842Z,100547.88
2022-09-10T04:07:39.313Z,100557.19
2022-09-10T04:12:45.728Z,100561.45
2022-09-10T04:17:54.987Z,100560.08
2022-09-10T04:23:03.680Z,100553.44
2022-09-10T04:28:11.358Z,100556.77
2022-09-10T04:33:17.692Z,100552.64
2022-09-10T04:38:24.197Z,100532.09
2022-09-10T04:43:31.421Z,100528.11
2022-09-10T04:48:39.217Z,100515.98
2022-09-10T04:53:46.697Z,100507.02
2022-09-10T04:58:53.018Z,100497.79
2022-09-10T05:03:59.285Z,100497.02
2022-09-10T05:09:05.394Z,100516.89
2022-09-10T05:14:12.383Z,100518.23
2022-09-10T05:19:18.988Z,100498.33
2022-09-10T05:24:28.557Z,100472.05
2022-09-10T05:29:34.701Z,100479.15
2022-09-10T05:34:41.222Z,100489.38
2022-09-10T05:39:48.513Z,100499.80
2022-09-10T05:44:54.492Z,100497.44
2022-09-10T05:50:00.288Z,100497.66
2022-09-10T05:55:09.197Z,100493.05
2022-09-10T06:00:16.031Z,100486.88
2022-09-10T06:05:25.169Z,100475.27
2022-09-10T06:10:32.633Z,100464.52
2022-09-10T06:15:39.137Z,100468.10
2022-09-10T06:20:48.133Z,100467.17
2022-09-10T06:26:04.297Z,100469.70
2022-09-10T06:31:17.123Z,100469.96
2022-09-10T06:36:23.946Z,100464.33
2022-09-10T06:41:31.066Z,100465.08
2022-09-10T06:52:14.328Z,100456.13
2022-09-10T06:57:21.007Z,100453.18
2022-09-10T07:02:27.516Z,100449.98
2022-09-10T07:07:33.737Z,100452.80
2022-09-10T07:12:42.415Z,100448.08
2022-09-10T07:17:49.157Z,100456.79
2022-09-10T07:22:56.182Z,100458.14
2022-09-10T07:28:04.373Z,100456.94
2022-09-10T07:33:12.293Z,100459.42
2022-09-10T07:38:21.283Z,100465.38
2022-09-10T07:43:28.469Z,100470.98
2022-09-10T07:48:34.993Z,100469.52
2022-09-10T07:53:49.993Z,100470.37
2022-09-10T07:58:57.559Z,100470.56
2022-09-10T08:04:07.771Z,100479.51
2022-09-10T08:09:16.248Z,100488.98
2022-09-10T08:14:27.971Z,100488.84
2022-09-10T08:19:34.635Z,100486.23
2022-09-10T08:24:41.053Z,100487.33
2022-09-10T08:29:47.143Z,100487.42
2022-09-10T08:34:53.489Z,100484.46
2022-09-10T08:39:59.770Z,100478.52
2022-09-10T08:45:12.080Z,100480.38
2022-09-10T08:50:25.335Z,100480.30
2022-09-10T08:55:34.485Z,100471.10
2022-09-10T09:00:44.729Z,100470.02
2022-09-10T09:05:58.384Z,100466.95
2022-09-10T09:11:16.449Z,100478.38
2022-09-10T09:16:47.811Z,100479.01
2022-09-10T09:21:56.197Z,100483.73
2022-09-10T09:27:11.302Z,100485.27
2022-09-10T09:32:20.748Z,100479.08
2022-09-10T09:37:30.421Z,100477.70
2022-09-10T09:42:45.561Z,100482.11
2022-09-10T09:47:54.497Z,100476.60
2022-09-10T09:53:00.887Z,100465.23
2022-09-10T09:58:38.917Z,100463.02
2022-09-10T10:04:00.197Z,100465.78
2022-09-10T10:09:20.251Z,100457.27
2022-09-10T10:14:36.347Z,100448.52
2022-09-10T10:19:44.030Z,100445.40
2022-09-10T10:24:52.644Z,100457.84
2022-09-10T10:30:02.030Z,100458.75
2022-09-10T10:35:36.278Z,100443.02
2022-09-10T10:40:48.769Z,100435.44
2022-09-10T10:46:03.294Z,100421.98
2022-09-10T10:51:18.072Z,100412.61
2022-09-10T10:56:29.943Z,100413.61
2022-09-10T11:01:41.529Z,100411.14
2022-09-10T11:06:52.175Z,100418.70
2022-09-10T11:12:01.419Z,100410.98
2022-09-10T11:17:12.334Z,100397.40
2022-09-10T11:22:24.014Z,100396.16
2022-09-10T11:27:35.757Z,100399.81
2022-09-10T11:32:46.543Z,100400.14
2022-09-10T11:38:00.951Z,100402.25
2022-09-10T11:43:11.287Z,100398.21
2022-09-10T11:48:27.561Z,100391.02
2022-09-10T11:53:34.244Z,100390.91
2022-09-10T11:58:52.867Z,100384.73
2022-09-10T12:04:29.656Z,100383.11
2022-09-10T12:09:44.849Z,100375.89
2022-09-10T12:14:51.049Z,100376.86
2022-09-10T12:19:59.492Z,100372.20
2022-09-10T12:25:22.969Z,100368.40
2022-09-10T12:31:04.338Z,100362.73
2022-09-10T12:36:10.731Z,100357.35
2022-09-10T12:41:59.851Z,100353.28
2022-09-10T12:47:41.123Z,100347.65
2022-09-10T12:53:02.822Z,100345.32
2022-09-10T12:58:23.450Z,100339.79
2022-09-10T13:03:31.446Z,100335.03
2022-09-10T13:08:42.647Z,100334.84
2022-09-10T13:13:56.402Z,100333.23
2022-09-10T13:19:43.011Z,100327.25
2022-09-10T13:25:24.298Z,100319.05
2022-09-10T13:30:31.383Z,100312.58
2022-09-10T13:36:19.681Z,100311.79
2022-09-10T13:41:58.845Z,100310.36
2022-09-10T13:47:13.858Z,100305.58
2022-09-10T13:52:22.254Z,100305.77
2022-09-10T13:57:33.626Z,100307.58
2022-09-10T14:02:48.194Z,100306.92
2022-09-10T14:07:56.963Z,100304.77
2022-09-10T14:13:03.926Z,100300.13
2022-09-10T14:18:12.291Z,100294.31
2022-09-10T14:23:19.010Z,100294.67
2022-09-10T14:28:28.769Z,100296.73
2022-09-10T14:33:37.060Z,100294.01
2022-09-10T14:38:45.312Z,100296.19
2022-09-10T14:44:12.202Z,100295.48
2022-09-10T14:49:25.306Z,100295.05
2022-09-10T14:54:33.786Z,100294.71
2022-09-10T14:59:41.948Z,100297.91
2022-09-10T15:04:48.189Z,100294.25
2022-09-10T15:09:55.033Z,100292.97
2022-09-10T15:15:00.711Z,100289.61
2022-09-10T15:20:09.170Z,100290.20
2022-09-10T15:25:38.041Z,100288.11
2022-09-10T15:30:44.462Z,100288.70
2022-09-10T15:35:50.350Z,100285.81
2022-09-10T15:41:09.319Z,100286.09
2022-09-10T15:46:17.084Z,100287.79
2022-09-10T15:51:24.252Z,100292.61
2022-09-10T15:56:30.620Z,100286.20
2022-09-10T16:01:41.262Z,100281.77
2022-09-10T16:06:47.268Z,100282.77
2022-09-10T16:11:53.131Z,100280.98
2022-09-10T16:17:00.913Z,100280.21
2022-09-10T16:22:08.064Z,100277.23
2022-09-10T16:27:14.178Z,100276.75
2022-09-10T16:32:20.010Z,100269.65
2022-09-10T16:37:26.291Z,100269.48
2022-09-10T16:42:32.143Z,100263.77
2022-09-10T16:47:38.159Z,100260.84
2022-09-10T16:52:44.381Z,100249.40
2022-09-10T16:57:50.199Z,100253.73
2022-09-10T17:02:59.186Z,100255.42
2022-09-10T17:08:06.384Z,100251.64
2022-09-10T17:13:12.158Z,100246.98
2022-09-10T17:18:18.345Z,100249.23
2022-09-10T17:23:25.816Z,100252.81
2022-09-10T17:28:33.194Z,100251.17
2022-09-10T17:33:39.153Z,100248.88
2022-09-10T17:38:46.089Z,100247.33
2022-09-10T17:43:52.865Z,100242.36
2022-09-10T17:49:02.631Z,100237.44
2022-09-10T17:54:08.845Z,100239.23
2022-09-10T17:59:15.487Z,100235.73
2022-09-10T18:04:22.017Z,100233.88
2022-09-10T18:09:28.255Z,100232.02
2022-09-10T18:14:34.655Z,100233.62
2022-09-10T18:19:41.340Z,100238.89
2022-09-10T18:24:48.104Z,100238.40
2022-09-10T18:29:53.913Z,100240.14
2022-09-10T18:35:00.043Z,100241.26
2022-09-10T18:40:07.968Z,100239.99
2022-09-10T18:45:13.915Z,100244.43
2022-09-10T18:50:19.846Z,100244.02
2022-09-10T18:55:25.777Z,100245.04
2022-09-10T19:00:32.693Z,100241.10
2022-09-10T19:05:40.135Z,100232.73
2022-09-10T19:10:46.095Z,100225.91
2022-09-10T19:15:57.379Z,100220.52
2022-09-10T19:21:05.861Z,100224.47
2022-09-10T19:26:12.899Z,100221.08
2022-09-10T19:31:20.735Z,100218.20
2022-09-10T19:36:27.859Z,100215.95
2022-09-10T19:41:35.350Z,100211.27
2022-09-10T19:46:43.610Z,100205.64
2022-09-10T19:51:50.223Z,100204.32
2022-09-10T19:56:56.354Z,100205.46
2022-09-10T20:02:02.387Z,100200.16
2022-09-10T20:07:08.488Z,100200.67
2022-09-10T20:12:16.278Z,100197.40
2022-09-10T20:17:22.502Z,100191.44
2022-09-10T20:22:28.386Z,100190.23
2022-09-10T20:27:34.649Z,100189.98
2022-09-10T20:32:41.053Z,100186.63
2022-09-10T20:37:51.614Z,100181.71
2022-09-10T20:42:57.638Z,100179.59
2022-09-10T20:48:03.868Z,100176.45
2022-09-10T20:53:10.100Z,100173.05
2022-09-10T20:58:16.638Z,100170.52
2022-09-10T21:03:23.297Z,100163.97
2022-09-10T21:08:31.481Z,100161.02
2022-09-10T21:13:42.697Z,100160.39
2022-09-10T21:18:54.158Z,100153.82
2022-09-10T21:24:03.215Z,100153.17
2022-09-10T21:29:12.248Z,100151.71
2022-09-10T21:34:19.245Z,100149.33
2022-09-10T21:39:26.359Z,100152.60
2022-09-10T21:44:32.309Z,100153.95
2022-09-10T21:49:39.303Z,100149.59
2022-09-10T21:54:45.483Z,100146.50
2022-09-10T21:59:52.086Z,100146.66
2022-09-10T22:04:58.265Z,100143.11
2022-09-10T22:10:06.811Z,100144.77
2022-09-10T22:15:14.619Z,100140.13
2022-09-10T22:20:20.791Z,100130.70
2022-09-10T22:25:26.792Z,100131.34
2022-09-10T22:30:32.496Z,100133.19
2022-09-10T22:35:39.138Z,100131.95
2022-09-10T22:40:45.388Z,100132.79
2022-09-10T22:45:51.374Z,100124.68
2022-09-10T22:50:59.205Z,100119.99
2022-09-10T22:56:06.164Z,100116.58
2022-09-10T23:01:14.355Z,100109.70
2022-09-10T23:06:22.691Z,100112.26
2022-09-10T23:11:30.734Z,100106.20
2022-09-10T23:16:38.923Z,100102.38
2022-09-10T23:21:48.829Z,100096.12
2022-09-10T23:26:55.417Z,100097.73
2022-09-10T23:32:02.241Z,100096.63
2022-09-10T23:37:10.015Z,100095.13
2022-09-10T23:42:16.758Z,100089.22
2022-09-10T23:47:22.910Z,100084.44
2022-09-10T23:52:29.169Z,100080.14
2022-09-10T23:57:35.263Z,100080.20
